createdAt,value
2022-12-26T00:00:27.439Z,20.98
2022-12-26T00:02:28.841Z,21.02
2022-12-26T00:04:52.281Z,21.09
2022-12-26T00:06:51.567Z,21.13
2022-12-26T00:08:52.873Z,21.18
2022-12-26T00:10:54.220Z,21.21
2022-12-26T00:12:55.531Z,21.23
2022-12-26T00:15:16.836Z,21.27
2022-12-26T00:17:18.115Z,21.29
2022-12-26T00:19:19.425Z,20.49
2022-12-26T00:21:20.990Z,21.33
2022-12-26T00:23:22.274Z,21.34
2022-12-26T00:25:23.569Z,21.34
2022-12-26T00:27:24.870Z,21.36
2022-12-26T00:29:26.188Z,21.38
2022-12-26T00:31:27.587Z,20.54
2022-12-26T00:33:28.908Z,21.38
2022-12-26T00:35:30.235Z,21.39
2022-12-26T00:37:31.540Z,21.39
2022-12-26T00:39:32.837Z,21.39
2022-12-26T00:41:34.204Z,21.37
2022-12-26T00:43:35.536Z,21.38
2022-12-26T00:45:36.832Z,21.38
2022-12-26T00:47:38.157Z,21.35
2022-12-26T00:50:13.323Z,21.36
2022-12-26T00:52:00.781Z,21.38
2022-12-26T00:54:02.122Z,21.39
2022-12-26T00:56:03.421Z,21.36
2022-12-26T00:58:04.779Z,21.34
2022-12-26T01:00:06.079Z,21.32
2022-12-26T01:02:27.418Z,21.32
2022-12-26T01:04:28.843Z,21.31
2022-12-26T01:06:30.146Z,21.30
2022-12-26T01:08:31.460Z,21.28
2022-12-26T01:10:32.815Z,21.27
2022-12-26T01:12:34.112Z,21.25
2022-12-26T01:14:35.415Z,21.22
2022-12-26T01:16:36.811Z,21.23
2022-12-26T01:18:38.226Z,21.21
2022-12-26T01:20:39.541Z,21.20
2022-12-26T01:22:40.866Z,21.17
2022-12-26T01:24:42.188Z,21.16
2022-12-26T01:26:43.559Z,21.15
2022-12-26T01:28:44.854Z,21.13
2022-12-26T01:30:46.160Z,21.14
2022-12-26T01:32:47.491Z,21.13
2022-12-26T01:34:48.839Z,21.12
2022-12-26T01:36:50.130Z,21.11
2022-12-26T01:38:51.551Z,21.11
2022-12-26T01:41:12.843Z,21.12
2022-12-26T01:43:14.164Z,21.15
2022-12-26T01:45:15.463Z,21.13
2022-12-26T01:47:16.762Z,21.14
2022-12-26T01:49:18.071Z,21.13
2022-12-26T01:51:19.404Z,21.15
2022-12-26T01:53:21.725Z,21.15
2022-12-26T01:55:23.031Z,21.17
2022-12-26T01:57:24.340Z,21.17
2022-12-26T01:59:25.678Z,21.20
2022-12-26T02:01:27.092Z,21.19
2022-12-26T02:03:47.023Z,21.22
2022-12-26T02:05:49.346Z,21.22
2022-12-26T02:07:50.687Z,21.24
2022-12-26T02:09:52.031Z,21.25
2022-12-26T02:12:34.683Z,21.31
2022-12-26T02:14:14.693Z,21.28
2022-12-26T02:16:16.030Z,21.26
2022-12-26T02:18:17.415Z,21.28
2022-12-26T02:20:18.774Z,21.26
2022-12-26T02:22:20.095Z,21.25
2022-12-26T02:24:21.432Z,21.24
2022-12-26T02:26:22.719Z,21.24
2022-12-26T02:28:24.133Z,21.25
2022-12-26T02:30:25.430Z,21.25
2022-12-26T02:32:26.879Z,21.24
2022-12-26T02:34:28.211Z,21.27
2022-12-26T02:36:29.659Z,21.33
2022-12-26T02:38:30.958Z,21.41
2022-12-26T02:40:32.252Z,21.42
2022-12-26T02:42:33.542Z,21.45
2022-12-26T02:44:53.363Z,21.46
2022-12-26T02:47:03.580Z,21.46
2022-12-26T02:49:04.871Z,21.44
2022-12-26T02:51:25.004Z,21.45
2022-12-26T02:53:44.871Z,21.45
2022-12-26T02:56:04.684Z,21.45
2022-12-26T02:58:24.442Z,21.46
2022-12-26T03:00:44.214Z,21.44
2022-12-26T03:03:04.184Z,21.46
2022-12-26T03:05:24.300Z,21.44
2022-12-26T03:07:48.704Z,21.43
2022-12-26T03:10:28.460Z,21.40
2022-12-26T03:12:48.132Z,21.43
2022-12-26T03:14:49.488Z,21.41
2022-12-26T03:17:09.528Z,21.41
2022-12-26T03:19:11.276Z,21.38
2022-12-26T03:21:12.605Z,21.37
2022-12-26T03:23:13.911Z,21.36
2022-12-26T03:25:34.111Z,21.32
2022-12-26T03:27:35.406Z,21.29
2022-12-26T03:29:55.207Z,21.29
2022-12-26T03:31:56.550Z,21.28
2022-12-26T03:34:16.424Z,21.27
2022-12-26T03:36:17.723Z,21.24
2022-12-26T03:38:19.038Z,21.24
2022-12-26T03:40:38.974Z,21.27
2022-12-26T03:42:58.764Z,21.22
2022-12-26T03:45:18.641Z,21.17
2022-12-26T03:47:38.565Z,21.13
2022-12-26T03:49:58.524Z,21.15
2022-12-26T03:52:18.480Z,21.16
2022-12-26T03:54:38.249Z,21.12
2022-12-26T03:56:58.088Z,21.09
2022-12-26T03:59:17.996Z,21.10
2022-12-26T04:01:38.236Z,21.15
2022-12-26T04:03:58.555Z,21.22
2022-12-26T04:06:18.768Z,21.27
2022-12-26T04:08:38.934Z,21.29
2022-12-26T04:10:58.803Z,21.30
2022-12-26T04:13:18.789Z,21.35
2022-12-26T04:15:38.783Z,21.41
2022-12-26T04:17:59.145Z,21.46
2022-12-26T04:20:00.470Z,21.49
2022-12-26T04:22:20.691Z,21.54
2022-12-26T04:24:40.578Z,21.57
2022-12-26T04:27:00.605Z,21.60
2022-12-26T04:29:20.413Z,21.61
2022-12-26T04:31:40.536Z,21.62
2022-12-26T04:34:00.833Z,21.63
2022-12-26T04:36:20.616Z,21.63
2022-12-26T04:38:40.494Z,21.65
2022-12-26T04:41:00.216Z,21.69
2022-12-26T04:43:50.501Z,21.68
2022-12-26T04:45:41.231Z,21.67
2022-12-26T04:48:02.483Z,21.39
2022-12-26T04:50:12.773Z,21.25
2022-12-26T04:52:14.597Z,21.27
2022-12-26T04:54:15.887Z,21.28
2022-12-26T04:56:18.775Z,21.28
2022-12-26T04:58:20.834Z,21.25
2022-12-26T05:00:24.083Z,21.25
2022-12-26T05:02:44.168Z,21.23
2022-12-26T05:05:04.462Z,21.20
2022-12-26T05:07:24.541Z,21.18
2022-12-26T05:09:35.037Z,21.12
2022-12-26T05:11:36.401Z,21.08
2022-12-26T05:13:37.702Z,21.07
2022-12-26T05:15:57.910Z,21.02
2022-12-26T05:18:18.169Z,21.01
2022-12-26T05:20:38.025Z,21.00
2022-12-26T05:22:57.748Z,21.03
2022-12-26T05:25:17.787Z,21.05
2022-12-26T05:27:37.682Z,21.03
2022-12-26T05:29:39.160Z,21.02
2022-12-26T05:31:40.563Z,21.05
2022-12-26T05:34:00.581Z,21.06
2022-12-26T05:36:01.885Z,21.14
2022-12-26T05:38:03.186Z,21.20
2022-12-26T05:40:04.491Z,21.24
2022-12-26T05:42:05.836Z,21.31
2022-12-26T05:44:07.145Z,21.34
2022-12-26T05:46:08.489Z,21.38
2022-12-26T05:48:09.854Z,21.41
2022-12-26T05:50:11.142Z,21.43
2022-12-26T05:52:12.480Z,21.44
2022-12-26T05:54:13.799Z,21.42
2022-12-26T05:56:15.176Z,21.48
2022-12-26T05:58:16.488Z,21.47
2022-12-26T06:00:17.796Z,21.50
2022-12-26T06:02:19.187Z,21.50
2022-12-26T06:04:20.527Z,21.50
2022-12-26T06:06:21.866Z,21.50
2022-12-26T06:08:23.155Z,21.49
2022-12-26T06:10:26.889Z,21.50
2022-12-26T06:12:28.183Z,21.49
2022-12-26T06:14:29.497Z,21.47
2022-12-26T06:16:30.845Z,21.45
2022-12-26T06:18:32.195Z,21.41
2022-12-26T06:20:33.620Z,21.38
2022-12-26T06:22:34.945Z,21.36
2022-12-26T06:24:36.247Z,21.33
2022-12-26T06:26:37.899Z,21.29
2022-12-26T06:28:40.290Z,21.25
2022-12-26T06:30:41.601Z,21.24
2022-12-26T06:32:42.918Z,21.25
2022-12-26T06:34:44.223Z,21.22
2022-12-26T06:36:45.551Z,21.22
2022-12-26T06:38:46.903Z,21.20
2022-12-26T06:40:48.225Z,21.16
2022-12-26T06:42:49.568Z,21.15
2022-12-26T06:44:50.862Z,21.17
2022-12-26T06:46:52.333Z,21.14
2022-12-26T06:48:53.797Z,21.17
2022-12-26T06:50:55.464Z,21.20
2022-12-26T06:52:56.775Z,21.21
2022-12-26T06:54:58.919Z,21.20
2022-12-26T06:57:00.213Z,21.19
2022-12-26T06:59:01.515Z,21.18
2022-12-26T07:01:02.901Z,21.21
2022-12-26T07:03:04.272Z,21.22
2022-12-26T07:05:06.260Z,21.24
2022-12-26T07:07:07.589Z,21.24
2022-12-26T07:09:09.493Z,21.26
2022-12-26T07:11:10.930Z,21.27
2022-12-26T07:13:12.234Z,21.28
2022-12-26T07:15:13.531Z,21.30
2022-12-26T07:17:14.831Z,21.33
2022-12-26T07:19:16.188Z,21.35
2022-12-26T07:21:17.588Z,21.36
2022-12-26T07:23:18.887Z,21.37
2022-12-26T07:25:20.219Z,21.43
2022-12-26T07:27:21.526Z,21.44
2022-12-26T07:29:22.987Z,21.44
2022-12-26T07:31:24.356Z,21.42
2022-12-26T07:33:25.680Z,21.48
2022-12-26T07:35:26.990Z,21.14
2022-12-26T07:37:28.282Z,21.51
2022-12-26T07:39:29.638Z,21.49
2022-12-26T07:41:49.604Z,21.49
2022-12-26T07:43:50.934Z,21.46
2022-12-26T07:45:52.304Z,21.44
2022-12-26T07:47:53.661Z,21.43
2022-12-26T07:49:54.959Z,21.37
2022-12-26T07:51:56.302Z,21.36
2022-12-26T07:53:57.675Z,21.33
2022-12-26T07:55:59.004Z,21.36
2022-12-26T07:58:00.347Z,21.30
2022-12-26T08:00:01.703Z,21.23
2022-12-26T08:02:05.137Z,21.21
2022-12-26T08:04:06.589Z,21.20
2022-12-26T08:06:07.927Z,21.19
2022-12-26T08:08:09.413Z,21.18
2022-12-26T08:10:10.712Z,21.14
2022-12-26T08:12:13.643Z,21.11
2022-12-26T08:14:19.355Z,21.11
2022-12-26T08:16:20.716Z,21.15
2022-12-26T08:18:22.093Z,21.17
2022-12-26T08:20:23.391Z,21.19
2022-12-26T08:22:24.718Z,21.20
2022-12-26T08:24:26.015Z,21.20
2022-12-26T08:26:27.338Z,21.24
2022-12-26T08:28:28.673Z,21.27
2022-12-26T08:30:30.008Z,21.27
2022-12-26T08:32:31.295Z,21.30
2022-12-26T08:34:32.615Z,21.32
2022-12-26T08:36:33.957Z,21.37
2022-12-26T08:38:35.255Z,21.42
2022-12-26T08:40:44.631Z,21.44
2022-12-26T08:43:11.779Z,21.44
2022-12-26T08:45:07.443Z,21.43
2022-12-26T08:47:08.757Z,21.26
2022-12-26T08:49:10.110Z,21.56
2022-12-26T08:51:11.464Z,21.72
2022-12-26T08:53:12.775Z,21.60
2022-12-26T08:55:14.117Z,21.68
2022-12-26T08:57:15.895Z,21.58
2022-12-26T08:59:17.248Z,21.42
2022-12-26T09:01:18.721Z,21.32
2022-12-26T09:03:20.153Z,21.26
2022-12-26T09:05:24.281Z,21.21
2022-12-26T09:07:25.573Z,21.18
2022-12-26T09:09:26.871Z,21.14
2022-12-26T09:11:28.702Z,21.12
2022-12-26T09:13:30.027Z,21.10
2022-12-26T09:15:31.348Z,21.07
2022-12-26T09:17:32.700Z,21.04
2022-12-26T09:19:34.042Z,21.01
2022-12-26T09:21:38.289Z,20.98
2022-12-26T09:23:39.611Z,20.96
2022-12-26T09:25:40.914Z,20.94
2022-12-26T09:27:42.718Z,20.93
2022-12-26T09:29:44.132Z,20.93
2022-12-26T09:31:45.476Z,20.91
2022-12-26T09:33:47.547Z,20.91
2022-12-26T09:35:48.884Z,20.93
2022-12-26T09:37:50.205Z,20.92
2022-12-26T09:39:51.511Z,20.83
2022-12-26T09:41:53.153Z,19.08
2022-12-26T09:43:54.436Z,18.42
2022-12-26T09:45:58.707Z,18.33
2022-12-26T09:48:00.103Z,18.30
2022-12-26T09:50:01.691Z,18.12
2022-12-26T09:52:03.059Z,18.84
2022-12-26T09:54:04.374Z,19.80
2022-12-26T09:56:05.681Z,20.26
2022-12-26T09:58:09.882Z,20.49
2022-12-26T10:00:12.258Z,20.58
2022-12-26T10:02:13.672Z,20.66
2022-12-26T10:04:15.111Z,20.72
2022-12-26T10:06:16.445Z,20.58
2022-12-26T10:08:17.778Z,20.67
2022-12-26T10:10:19.075Z,20.74
2022-12-26T10:12:20.404Z,20.83
2022-12-26T10:14:22.224Z,20.77
2022-12-26T10:16:23.640Z,20.80
2022-12-26T10:18:24.993Z,20.86
2022-12-26T10:20:29.081Z,20.87
2022-12-26T10:22:30.611Z,20.90
2022-12-26T10:24:32.235Z,20.89
2022-12-26T10:26:33.558Z,20.90
2022-12-26T10:28:34.867Z,20.90
2022-12-26T10:30:36.168Z,20.92
2022-12-26T10:32:37.470Z,20.94
2022-12-26T10:34:38.775Z,20.94
2022-12-26T10:36:40.083Z,20.96
2022-12-26T10:38:41.427Z,20.98
2022-12-26T10:40:42.752Z,20.96
2022-12-26T10:42:44.052Z,20.98
2022-12-26T10:44:48.133Z,20.98
2022-12-26T10:46:49.836Z,20.98
2022-12-26T10:48:51.189Z,21.01
2022-12-26T10:50:52.535Z,20.98
2022-12-26T10:52:54.147Z,20.97
2022-12-26T10:55:27.057Z,20.96
2022-12-26T10:57:20.211Z,20.94
2022-12-26T10:59:21.545Z,20.93
2022-12-26T11:01:22.925Z,20.94
2022-12-26T11:03:24.369Z,20.93
2022-12-26T11:05:48.897Z,20.94
2022-12-26T11:07:47.029Z,20.95
2022-12-26T11:09:48.469Z,20.93
2022-12-26T11:11:51.647Z,20.92
2022-12-26T11:13:52.965Z,20.93
2022-12-26T11:15:54.297Z,20.92
2022-12-26T11:17:55.669Z,20.93
2022-12-26T11:19:57.720Z,20.93
2022-12-26T11:21:59.089Z,20.93
2022-12-26T11:24:00.387Z,20.94
2022-12-26T11:26:04.663Z,20.95
2022-12-26T11:28:05.969Z,20.95
2022-12-26T11:30:07.271Z,20.98
2022-12-26T11:32:08.608Z,20.98
2022-12-26T11:34:12.638Z,20.98
2022-12-26T11:36:13.945Z,20.99
2022-12-26T11:38:38.992Z,21.00
2022-12-26T11:41:03.986Z,20.98
2022-12-26T11:43:05.338Z,20.98
2022-12-26T11:45:06.636Z,20.98
2022-12-26T11:47:07.977Z,21.00
2022-12-26T11:49:09.270Z,20.98
2022-12-26T11:51:10.646Z,21.00
2022-12-26T11:53:12.938Z,21.00
2022-12-26T11:55:14.229Z,20.98
2022-12-26T11:57:15.569Z,21.00
2022-12-26T11:59:16.891Z,20.98
2022-12-26T12:01:18.299Z,20.98
2022-12-26T12:03:19.713Z,20.97
2022-12-26T12:05:21.053Z,20.98
2022-12-26T12:07:22.354Z,20.99
2022-12-26T12:09:23.647Z,20.99
2022-12-26T12:11:25.001Z,20.98
2022-12-26T12:13:27.306Z,20.98
2022-12-26T12:15:28.650Z,20.98
2022-12-26T12:17:29.979Z,20.96
2022-12-26T12:19:31.289Z,20.98
2022-12-26T12:21:32.645Z,20.96
2022-12-26T12:23:34.007Z,20.95
2022-12-26T12:25:35.811Z,20.94
2022-12-26T12:27:37.104Z,20.95
2022-12-26T12:29:38.434Z,20.95
2022-12-26T12:31:39.806Z,20.97
2022-12-26T12:33:41.121Z,20.95
2022-12-26T12:35:42.527Z,20.94
2022-12-26T12:37:43.861Z,20.93
2022-12-26T12:39:45.217Z,20.93
2022-12-26T12:41:46.577Z,20.94
2022-12-26T12:43:49.097Z,20.93
2022-12-26T12:45:50.440Z,20.93
2022-12-26T12:47:51.834Z,20.95
2022-12-26T12:49:53.183Z,20.95
2022-12-26T12:51:54.510Z,20.93
2022-12-26T12:53:55.853Z,20.94
2022-12-26T12:55:57.146Z,20.92
2022-12-26T12:57:58.677Z,20.94
2022-12-26T13:00:00.111Z,20.92
2022-12-26T13:02:05.592Z,20.92
2022-12-26T13:04:10.454Z,20.92
2022-12-26T13:06:11.761Z,20.90
2022-12-26T13:08:13.072Z,20.90
2022-12-26T13:10:14.370Z,20.92
2022-12-26T13:12:15.670Z,20.94
2022-12-26T13:14:17.432Z,20.96
2022-12-26T13:16:18.767Z,20.98
2022-12-26T13:18:20.078Z,21.01
2022-12-26T13:20:21.383Z,21.04
2022-12-26T13:22:22.724Z,21.06
2022-12-26T13:24:24.039Z,21.09
2022-12-26T13:26:27.037Z,21.10
2022-12-26T13:28:28.449Z,21.10
2022-12-26T13:30:29.783Z,21.10
2022-12-26T13:32:31.086Z,21.10
2022-12-26T13:34:32.540Z,21.06
2022-12-26T13:36:33.875Z,21.00
2022-12-26T13:38:35.211Z,20.93
2022-12-26T13:40:36.545Z,20.89
2022-12-26T13:42:59.559Z,20.83
2022-12-26T13:45:00.842Z,20.80
2022-12-26T13:47:02.179Z,20.81
2022-12-26T13:49:06.276Z,20.80
2022-12-26T13:51:07.699Z,20.82
2022-12-26T13:53:09.041Z,20.85
2022-12-26T13:55:10.376Z,20.89
2022-12-26T13:57:11.734Z,20.91
2022-12-26T13:59:13.079Z,20.94
2022-12-26T14:01:14.492Z,20.96
2022-12-26T14:03:19.037Z,20.99
2022-12-26T14:05:21.305Z,21.01
2022-12-26T14:07:22.607Z,21.02
2022-12-26T14:09:23.953Z,21.04
2022-12-26T14:11:25.280Z,21.05
2022-12-26T14:13:27.755Z,21.05
2022-12-26T14:15:29.681Z,21.04
2022-12-26T14:17:30.982Z,21.05
2022-12-26T14:19:32.267Z,21.06
2022-12-26T14:21:33.822Z,21.06
2022-12-26T14:23:35.286Z,21.06
2022-12-26T14:25:36.573Z,21.05
2022-12-26T14:27:37.956Z,21.06
2022-12-26T14:29:39.251Z,21.08
2022-12-26T14:31:40.566Z,21.09
2022-12-26T14:33:41.877Z,21.08
2022-12-26T14:35:43.221Z,21.08
2022-12-26T14:37:44.579Z,21.08
2022-12-26T14:39:45.884Z,21.09
2022-12-26T14:42:06.048Z,21.08
2022-12-26T14:44:07.439Z,21.08
2022-12-26T14:46:08.748Z,21.10
2022-12-26T14:48:15.818Z,21.09
2022-12-26T14:50:17.205Z,21.09
2022-12-26T14:52:18.603Z,21.07
2022-12-26T14:54:22.183Z,21.06
2022-12-26T14:56:24.888Z,21.06
2022-12-26T14:58:26.301Z,21.08
2022-12-26T15:00:27.640Z,21.06
2022-12-26T15:02:29.105Z,21.07
2022-12-26T15:04:30.565Z,21.07
2022-12-26T15:06:31.946Z,21.05
2022-12-26T15:08:33.258Z,21.06
2022-12-26T15:10:34.554Z,21.04
2022-12-26T15:12:35.934Z,21.02
2022-12-26T15:14:37.242Z,21.03
2022-12-26T15:16:38.565Z,21.03
2022-12-26T15:18:43.150Z,21.02
2022-12-26T15:20:44.763Z,21.01
2022-12-26T15:22:46.115Z,21.04
2022-12-26T15:27:08.789Z,21.01
2022-12-26T15:29:10.183Z,21.02
2022-12-26T15:31:11.611Z,20.99
2022-12-26T15:33:12.972Z,21.01
2022-12-26T15:35:14.271Z,21.00
2022-12-26T15:37:21.705Z,21.00
2022-12-26T15:39:23.126Z,21.00
2022-12-26T15:41:24.501Z,20.99
2022-12-26T15:43:25.850Z,21.00
2022-12-26T15:45:28.621Z,21.01
2022-12-26T15:47:30.144Z,21.01
2022-12-26T15:49:31.868Z,21.01
2022-12-26T15:51:33.154Z,21.02
2022-12-26T15:53:34.580Z,21.02
2022-12-26T15:55:36.004Z,21.01
2022-12-26T15:57:37.323Z,21.02
2022-12-26T15:59:38.805Z,21.02
2022-12-26T16:01:40.253Z,21.05
2022-12-26T16:03:41.764Z,21.01
2022-12-26T16:05:43.323Z,21.03
2022-12-26T16:07:44.738Z,21.03
2022-12-26T16:09:49.848Z,21.04
2022-12-26T16:11:51.231Z,21.03
2022-12-26T16:13:52.565Z,21.02
2022-12-26T16:15:53.922Z,21.05
2022-12-26T16:17:55.223Z,21.04
2022-12-26T16:19:56.610Z,21.04
2022-12-26T16:22:16.706Z,21.06
2022-12-26T16:24:18.021Z,21.06
2022-12-26T16:26:19.531Z,21.08
2022-12-26T16:28:20.990Z,21.07
2022-12-26T16:30:22.368Z,21.07
2022-12-26T16:32:23.810Z,21.07
2022-12-26T16:34:25.162Z,21.07
2022-12-26T16:36:26.484Z,21.09
2022-12-26T16:38:27.773Z,21.11
2022-12-26T16:40:29.085Z,21.10
2022-12-26T16:42:30.437Z,21.09
2022-12-26T16:44:31.819Z,21.10
2022-12-26T16:46:33.154Z,21.11
2022-12-26T16:48:34.478Z,21.10
2022-12-26T16:50:35.810Z,21.12
2022-12-26T16:52:42.077Z,21.09
2022-12-26T16:54:47.414Z,21.10
2022-12-26T16:56:48.749Z,21.11
2022-12-26T16:58:50.061Z,21.09
2022-12-26T17:00:51.603Z,21.09
2022-12-26T17:02:53.054Z,21.07
2022-12-26T17:04:58.436Z,21.08
2022-12-26T17:07:00.060Z,21.07
2022-12-26T17:09:10.143Z,21.07
2022-12-26T17:11:11.519Z,21.08
2022-12-26T17:13:12.818Z,21.06
2022-12-26T17:15:14.143Z,21.05
2022-12-26T17:17:15.433Z,21.04
2022-12-26T17:19:16.727Z,21.04
2022-12-26T17:21:20.710Z,21.03
2022-12-26T17:23:22.062Z,21.03
2022-12-26T17:25:26.368Z,21.04
2022-12-26T17:27:28.263Z,21.04
2022-12-26T17:29:29.607Z,21.03
2022-12-26T17:31:30.978Z,21.03
2022-12-26T17:33:32.332Z,21.02
2022-12-26T17:36:13.504Z,21.04
2022-12-26T17:37:54.885Z,21.04
2022-12-26T17:40:00.906Z,21.01
2022-12-26T17:42:04.252Z,21.03
2022-12-26T17:44:05.566Z,21.03
2022-12-26T17:46:06.928Z,21.02
2022-12-26T17:48:08.275Z,21.01
2022-12-26T17:50:09.607Z,21.03
2022-12-26T17:52:10.938Z,21.02
2022-12-26T17:54:12.220Z,21.04
2022-12-26T17:56:13.554Z,21.03
2022-12-26T17:58:14.931Z,21.03
2022-12-26T18:00:16.263Z,21.04
2022-12-26T18:02:17.699Z,21.05
2022-12-26T18:04:19.316Z,21.05
2022-12-26T18:06:21.885Z,21.05
2022-12-26T18:08:23.295Z,21.06
2022-12-26T18:10:24.630Z,21.05
2022-12-26T18:12:28.651Z,21.05
2022-12-26T18:14:29.952Z,21.06
2022-12-26T18:16:31.356Z,21.06
2022-12-26T18:18:32.743Z,21.06
2022-12-26T18:20:34.082Z,21.05
2022-12-26T18:22:35.488Z,21.05
2022-12-26T18:24:36.836Z,21.05
2022-12-26T18:26:38.159Z,21.04
2022-12-26T18:28:39.514Z,21.02
2022-12-26T18:30:40.920Z,20.98
2022-12-26T18:32:42.351Z,20.88
2022-12-26T18:34:43.642Z,20.83
2022-12-26T18:36:48.011Z,20.77
2022-12-26T18:38:49.308Z,20.73
2022-12-26T18:40:50.696Z,20.69
2022-12-26T18:42:52.022Z,20.68
2022-12-26T18:44:53.354Z,20.71
2022-12-26T18:46:54.677Z,20.76
2022-12-26T18:48:57.444Z,20.76
2022-12-26T18:50:59.048Z,20.79
2022-12-26T18:53:00.391Z,20.82
2022-12-26T18:55:01.735Z,20.85
2022-12-26T18:57:03.030Z,20.88
2022-12-26T18:59:04.492Z,20.90
2022-12-26T19:01:06.235Z,20.93
2022-12-26T19:03:07.663Z,20.94
2022-12-26T19:05:08.954Z,20.95
2022-12-26T19:07:10.252Z,20.98
2022-12-26T19:09:11.562Z,21.00
2022-12-26T19:11:12.890Z,21.02
2022-12-26T19:13:14.238Z,21.02
2022-12-26T19:15:15.542Z,21.04
2022-12-26T19:17:16.888Z,21.05
2022-12-26T19:19:20.953Z,21.00
2022-12-26T19:21:23.254Z,20.95
2022-12-26T19:23:27.674Z,21.06
2022-12-26T19:25:29.013Z,21.13
2022-12-26T19:27:30.325Z,21.20
2022-12-26T19:29:32.870Z,21.21
2022-12-26T19:31:34.213Z,21.22
2022-12-26T19:33:35.582Z,21.25
2022-12-26T19:35:36.926Z,21.41
2022-12-26T19:37:44.031Z,21.60
2022-12-26T19:39:45.335Z,21.73
2022-12-26T19:41:49.350Z,22.01
2022-12-26T19:43:50.645Z,22.21
2022-12-26T19:45:51.953Z,22.26
2022-12-26T19:47:53.499Z,22.27
2022-12-26T19:49:54.794Z,22.63
2022-12-26T19:51:56.083Z,22.71
2022-12-26T19:54:00.730Z,22.87
2022-12-26T19:56:02.023Z,23.18
2022-12-26T19:58:06.039Z,23.31
2022-12-26T20:00:07.634Z,23.28
2022-12-26T20:02:09.237Z,23.68
2022-12-26T20:04:13.743Z,23.23
2022-12-26T20:06:15.082Z,23.67
2022-12-26T20:08:16.403Z,23.04
2022-12-26T20:10:20.633Z,22.87
2022-12-26T20:12:21.960Z,22.28
2022-12-26T20:14:23.300Z,22.57
2022-12-26T20:17:03.216Z,22.88
2022-12-26T20:18:45.907Z,23.10
2022-12-26T20:20:49.852Z,22.83
2022-12-26T20:22:53.128Z,22.56
2022-12-26T20:24:54.762Z,22.62
2022-12-26T20:26:56.063Z,22.46
2022-12-26T20:28:57.356Z,21.96
2022-12-26T20:30:58.716Z,22.17
2022-12-26T20:33:00.115Z,21.86
2022-12-26T20:35:01.423Z,21.89
2022-12-26T20:37:03.119Z,21.90
2022-12-26T20:39:04.432Z,21.91
2022-12-26T20:41:05.773Z,21.95
2022-12-26T20:43:07.078Z,21.73
2022-12-26T20:45:08.411Z,21.78
2022-12-26T20:47:09.801Z,21.86
2022-12-26T20:49:11.143Z,21.89
2022-12-26T20:51:12.430Z,22.02
2022-12-26T20:53:13.801Z,22.17
2022-12-26T20:55:16.452Z,22.22
2022-12-26T20:57:17.793Z,22.10
2022-12-26T20:59:19.186Z,21.75
2022-12-26T21:01:23.641Z,21.52
2022-12-26T21:03:25.112Z,21.81
2022-12-26T21:05:26.479Z,21.89
2022-12-26T21:07:27.880Z,22.03
2022-12-26T21:09:29.193Z,22.34
2022-12-26T21:11:30.532Z,22.46
2022-12-26T21:13:31.867Z,22.47
2022-12-26T21:15:33.165Z,22.59
2022-12-26T21:17:34.516Z,22.63
2022-12-26T21:19:35.802Z,22.58
2022-12-26T21:21:40.555Z,22.68
2022-12-26T21:23:41.911Z,22.74
2022-12-26T21:25:43.218Z,22.80
2022-12-26T21:27:46.457Z,22.77
2022-12-26T21:29:50.715Z,22.79
2022-12-26T21:31:52.028Z,22.78
2022-12-26T21:33:53.372Z,22.76
2022-12-26T21:35:54.920Z,22.34
2022-12-26T21:37:56.278Z,22.28
2022-12-26T21:39:57.574Z,22.41
2022-12-26T21:41:58.887Z,22.51
2022-12-26T21:44:00.216Z,22.50
2022-12-26T21:46:01.632Z,22.45
2022-12-26T21:48:03.002Z,22.48
2022-12-26T21:50:04.350Z,21.62
2022-12-26T21:52:05.660Z,22.42
2022-12-26T21:54:25.892Z,22.42
2022-12-26T21:56:27.237Z,22.39
2022-12-26T21:58:29.294Z,22.32
2022-12-26T22:00:34.995Z,22.29
2022-12-26T22:02:55.004Z,21.66
2022-12-26T22:04:56.484Z,21.83
2022-12-26T22:06:57.787Z,21.92
2022-12-26T22:08:59.153Z,21.95
2022-12-26T22:11:19.274Z,21.99
2022-12-26T22:13:20.564Z,21.81
2022-12-26T22:15:43.730Z,21.50
2022-12-26T22:17:45.071Z,21.73
2022-12-26T22:19:46.361Z,21.83
2022-12-26T22:21:47.671Z,21.92
2022-12-26T22:23:52.033Z,22.06
2022-12-26T22:25:54.022Z,22.12
2022-12-26T22:27:55.316Z,22.18
2022-12-26T22:29:56.618Z,22.30
2022-12-26T22:31:58.918Z,22.39
2022-12-26T22:34:00.235Z,22.32
2022-12-26T22:36:01.527Z,22.42
2022-12-26T22:38:02.831Z,22.39
2022-12-26T22:40:04.180Z,22.41
2022-12-26T22:42:05.510Z,22.47
2022-12-26T22:44:06.865Z,22.58
2022-12-26T22:46:08.226Z,22.64
2022-12-26T22:48:09.556Z,22.70
2022-12-26T22:50:10.895Z,22.61
2022-12-26T22:52:15.907Z,22.86
2022-12-26T22:54:17.454Z,22.77
2022-12-26T22:56:18.742Z,22.86
2022-12-26T22:58:20.031Z,22.72
2022-12-26T23:00:21.346Z,22.70
2022-12-26T23:02:22.904Z,22.64
2022-12-26T23:04:24.320Z,22.57
2022-12-26T23:06:25.738Z,22.62
2022-12-26T23:08:27.073Z,22.58
2022-12-26T23:10:28.433Z,22.61
2022-12-26T23:12:44.965Z,22.62
2022-12-26T23:14:46.295Z,22.63
2022-12-26T23:16:50.645Z,22.59
2022-12-26T23:19:10.479Z,22.52
2022-12-26T23:21:30.505Z,22.00
2022-12-26T23:23:31.866Z,22.00
2022-12-26T23:25:33.161Z,22.34
2022-12-26T23:27:53.190Z,22.42
2022-12-26T23:30:13.402Z,22.52
2022-12-26T23:32:14.702Z,22.45
2022-12-26T23:34:18.830Z,22.45
2022-12-26T23:36:20.155Z,22.28
2022-12-26T23:38:21.451Z,22.04
2022-12-26T23:40:22.846Z,21.96
2022-12-26T23:42:24.149Z,21.93
2022-12-26T23:44:25.434Z,21.89
2022-12-26T23:46:26.837Z,22.04
2022-12-26T23:48:28.147Z,21.95
2022-12-26T23:50:29.511Z,21.90
2022-12-26T23:52:30.854Z,21.94
2022-12-26T23:54:32.189Z,21.98
2022-12-26T23:56:33.541Z,22.17
2022-12-26T23:58:34.908Z,22.27
